sensor_id;sensor_type;location;lat;lon;timestamp;temperature;humidity
11961;DHT22;6040;49.358;11.140;2023-08-08T00:00:52;10.50;99.90
11961;DHT22;6040;49.358;11.140;2023-08-08T00:03:20;10.60;99.90
11961;DHT22;6040;49.358;11.140;2023-08-08T00:05:47;10.60;99.90
11961;DHT22;6040;49.358;11.140;2023-08-08T00:08:14;11.20;99.90
11961;DHT22;6040;49.358;11.140;2023-08-08T00:10:41;10.70;99.90
11961;DHT22;6040;49.358;11.140;2023-08-08T00:13:08;10.60;99.90
11961;DHT22;6040;49.358;11.140;2023-08-08T00:15:35;10.70;99.90
11961;DHT22;6040;49.358;11.140;2023-08-08T00:18:02;10.70;99.90
11961;DHT22;6040;49.358;11.140;2023-08-08T00:20:30;10.70;99.90
11961;DHT22;6040;49.358;11.140;2023-08-08T00:22:57;10.70;99.90
11961;DHT22;6040;49.358;11.140;2023-08-08T00:25:24;11.60;99.90
11961;DHT22;6040;49.358;11.140;2023-08-08T00:27:51;10.70;99.90
11961;DHT22;6040;49.358;11.140;2023-08-08T00:30:17;10.90;99.90
11961;DHT22;6040;49.358;11.140;2023-08-08T00:32:44;10.70;99.90
11961;DHT22;6040;49.358;11.140;2023-08-08T00:35:11;10.70;99.90
11961;DHT22;6040;49.358;11.140;2023-08-08T00:37:39;10.70;99.90
11961;DHT22;6040;49.358;11.140;2023-08-08T00:40:07;10.80;99.90
11961;DHT22;6040;49.358;11.140;2023-08-08T00:42:34;10.80;99.90
11961;DHT22;6040;49.358;11.140;2023-08-08T00:45:01;10.80;99.90
11961;DHT22;6040;49.358;11.140;2023-08-08T00:47:30;10.80;99.90
11961;DHT22;6040;49.358;11.140;2023-08-08T00:49:57;10.80;99.90
11961;DHT22;6040;49.358;11.140;2023-08-08T00:52:24;11.00;99.90
11961;DHT22;6040;49.358;11.140;2023-08-08T00:54:53;10.90;99.90
11961;DHT22;6040;49.358;11.140;2023-08-08T00:57:19;10.80;99.90
11961;DHT22;6040;49.358;11.140;2023-08-08T00:59:46;10.80;99.90
11961;DHT22;6040;49.358;11.140;2023-08-08T01:02:13;11.70;99.90
11961;DHT22;6040;49.358;11.140;2023-08-08T01:04:40;10.90;99.90
11961;DHT22;6040;49.358;11.140;2023-08-08T01:07:12;11.00;99.90
11961;DHT22;6040;49.358;11.140;2023-08-08T01:09:47;11.60;99.90
11961;DHT22;6040;49.358;11.140;2023-08-08T01:12:17;12.20;99.90
11961;DHT22;6040;49.358;11.140;2023-08-08T01:14:44;10.70;99.90
11961;DHT22;6040;49.358;11.140;2023-08-08T01:17:11;10.80;99.90
11961;DHT22;6040;49.358;11.140;2023-08-08T01:19:39;10.90;99.90
11961;DHT22;6040;49.358;11.140;2023-08-08T01:22:11;10.90;99.90
11961;DHT22;6040;49.358;11.140;2023-08-08T01:24:40;10.90;99.90
11961;DHT22;6040;49.358;11.140;2023-08-08T01:27:09;11.00;99.90
11961;DHT22;6040;49.358;11.140;2023-08-08T01:29:36;10.90;99.90
11961;DHT22;6040;49.358;11.140;2023-08-08T01:32:05;10.90;99.90
11961;DHT22;6040;49.358;11.140;2023-08-08T01:34:34;11.10;99.90
11961;DHT22;6040;49.358;11.140;2023-08-08T01:37:07;11.10;99.90
11961;DHT22;6040;49.358;11.140;2023-08-08T01:39:37;11.10;99.90
11961;DHT22;6040;49.358;11.140;2023-08-08T01:42:06;11.10;99.90
11961;DHT22;6040;49.358;11.140;2023-08-08T01:44:34;11.20;99.90
11961;DHT22;6040;49.358;11.140;2023-08-08T01:47:01;11.20;99.90
11961;DHT22;6040;49.358;11.140;2023-08-08T01:49:27;11.20;99.90
11961;DHT22;6040;49.358;11.140;2023-08-08T01:51:54;11.10;99.90
11961;DHT22;6040;49.358;11.140;2023-08-08T01:54:21;11.10;99.90
11961;DHT22;6040;49.358;11.140;2023-08-08T01:56:48;11.10;99.90
11961;DHT22;6040;49.358;11.140;2023-08-08T01:59:16;11.20;99.90
11961;DHT22;6040;49.358;11.140;2023-08-08T02:01:43;11.10;99.90
11961;DHT22;6040;49.358;11.140;2023-08-08T02:04:10;12.50;99.90
11961;DHT22;6040;49.358;11.140;2023-08-08T02:06:37;11.20;99.90
11961;DHT22;6040;49.358;11.140;2023-08-08T02:09:03;11.10;99.90
11961;DHT22;6040;49.358;11.140;2023-08-08T02:11:31;11.10;99.90
11961;DHT22;6040;49.358;11.140;2023-08-08T02:13:58;11.10;99.90
11961;DHT22;6040;49.358;11.140;2023-08-08T02:16:26;11.00;99.90
11961;DHT22;6040;49.358;11.140;2023-08-08T02:18:53;11.00;99.90
11961;DHT22;6040;49.358;11.140;2023-08-08T02:21:19;10.60;99.90
11961;DHT22;6040;49.358;11.140;2023-08-08T02:23:46;11.00;99.90
11961;DHT22;6040;49.358;11.140;2023-08-08T02:26:13;10.60;99.90
11961;DHT22;6040;49.358;11.140;2023-08-08T02:28:40;11.00;99.90
11961;DHT22;6040;49.358;11.140;2023-08-08T02:31:07;10.60;99.90
11961;DHT22;6040;49.358;11.140;2023-08-08T02:33:35;10.60;99.90
11961;DHT22;6040;49.358;11.140;2023-08-08T02:36:02;11.20;99.90
11961;DHT22;6040;49.358;11.140;2023-08-08T02:38:29;11.10;99.90
11961;DHT22;6040;49.358;11.140;2023-08-08T02:40:55;10.70;99.90
11961;DHT22;6040;49.358;11.140;2023-08-08T02:43:22;10.70;99.90
11961;DHT22;6040;49.358;11.140;2023-08-08T02:45:49;10.70;99.90
11961;DHT22;6040;49.358;11.140;2023-08-08T02:48:16;11.30;99.90
11961;DHT22;6040;49.358;11.140;2023-08-08T02:50:44;10.90;99.90
11961;DHT22;6040;49.358;11.140;2023-08-08T02:53:11;11.10;99.90
11961;DHT22;6040;49.358;11.140;2023-08-08T02:55:37;11.70;99.90
11961;DHT22;6040;49.358;11.140;2023-08-08T02:58:04;11.20;99.90
11961;DHT22;6040;49.358;11.140;2023-08-08T03:00:31;11.20;99.90
11961;DHT22;6040;49.358;11.140;2023-08-08T03:02:58;11.30;99.90
11961;DHT22;6040;49.358;11.140;2023-08-08T03:05:25;10.70;99.90
11961;DHT22;6040;49.358;11.140;2023-08-08T03:07:53;11.20;99.90
11961;DHT22;6040;49.358;11.140;2023-08-08T03:10:20;11.30;99.90
11961;DHT22;6040;49.358;11.140;2023-08-08T03:12:46;11.30;99.90
11961;DHT22;6040;49.358;11.140;2023-08-08T03:15:14;11.20;99.90
11961;DHT22;6040;49.358;11.140;2023-08-08T03:17:40;11.30;99.90
11961;DHT22;6040;49.358;11.140;2023-08-08T03:20:08;10.80;99.90
11961;DHT22;6040;49.358;11.140;2023-08-08T03:22:36;11.40;99.90
11961;DHT22;6040;49.358;11.140;2023-08-08T03:25:05;11.60;99.90
11961;DHT22;6040;49.358;11.140;2023-08-08T03:27:32;11.50;99.90
11961;DHT22;6040;49.358;11.140;2023-08-08T03:29:59;11.60;99.90
11961;DHT22;6040;49.358;11.140;2023-08-08T03:32:26;11.40;99.90
11961;DHT22;6040;49.358;11.140;2023-08-08T03:34:53;11.30;99.90
11961;DHT22;6040;49.358;11.140;2023-08-08T03:37:20;11.30;99.90
11961;DHT22;6040;49.358;11.140;2023-08-08T03:39:46;11.80;99.90
11961;DHT22;6040;49.358;11.140;2023-08-08T03:42:15;11.30;99.90
11961;DHT22;6040;49.358;11.140;2023-08-08T03:44:42;12.00;99.90
11961;DHT22;6040;49.358;11.140;2023-08-08T03:47:10;11.00;99.90
11961;DHT22;6040;49.358;11.140;2023-08-08T03:49:37;10.80;99.90
11961;DHT22;6040;49.358;11.140;2023-08-08T03:52:04;11.30;99.90
11961;DHT22;6040;49.358;11.140;2023-08-08T03:54:31;11.30;99.90
11961;DHT22;6040;49.358;11.140;2023-08-08T03:56:58;11.20;99.90
11961;DHT22;6040;49.358;11.140;2023-08-08T03:59:27;10.70;99.90
11961;DHT22;6040;49.358;11.140;2023-08-08T04:01:54;11.10;99.90
11961;DHT22;6040;49.358;11.140;2023-08-08T04:04:21;11.10;99.90
11961;DHT22;6040;49.358;11.140;2023-08-08T04:06:48;10.80;99.90
11961;DHT22;6040;49.358;11.140;2023-08-08T04:09:14;11.00;99.90
11961;DHT22;6040;49.358;11.140;2023-08-08T04:11:41;11.00;99.90
11961;DHT22;6040;49.358;11.140;2023-08-08T04:14:08;10.90;99.90
11961;DHT22;6040;49.358;11.140;2023-08-08T04:16:36;12.10;99.90
11961;DHT22;6040;49.358;11.140;2023-08-08T04:19:03;11.20;99.90
11961;DHT22;6040;49.358;11.140;2023-08-08T04:21:30;10.80;99.90
11961;DHT22;6040;49.358;11.140;2023-08-08T04:23:57;11.50;99.90
11961;DHT22;6040;49.358;11.140;2023-08-08T04:26:24;10.70;99.90
11961;DHT22;6040;49.358;11.140;2023-08-08T04:28:51;10.70;99.90
11961;DHT22;6040;49.358;11.140;2023-08-08T04:31:18;10.70;99.90
11961;DHT22;6040;49.358;11.140;2023-08-08T04:33:46;10.80;99.90
11961;DHT22;6040;49.358;11.140;2023-08-08T04:36:13;10.80;99.90
11961;DHT22;6040;49.358;11.140;2023-08-08T04:38:40;10.70;99.90
11961;DHT22;6040;49.358;11.140;2023-08-08T04:41:07;10.60;99.90
11961;DHT22;6040;49.358;11.140;2023-08-08T04:43:33;10.70;99.90
11961;DHT22;6040;49.358;11.140;2023-08-08T04:46:00;11.60;99.90
11961;DHT22;6040;49.358;11.140;2023-08-08T04:48:27;10.70;99.90
11961;DHT22;6040;49.358;11.140;2023-08-08T04:50:55;10.20;99.90
11961;DHT22;6040;49.358;11.140;2023-08-08T04:53:22;10.80;99.90
11961;DHT22;6040;49.358;11.140;2023-08-08T04:55:49;10.80;99.90
11961;DHT22;6040;49.358;11.140;2023-08-08T04:58:15;10.70;99.90
11961;DHT22;6040;49.358;11.140;2023-08-08T05:00:42;10.20;99.90
11961;DHT22;6040;49.358;11.140;2023-08-08T05:03:09;10.70;99.90
11961;DHT22;6040;49.358;11.140;2023-08-08T05:05:36;10.70;99.90
11961;DHT22;6040;49.358;11.140;2023-08-08T05:08:04;10.70;99.90
11961;DHT22;6040;49.358;11.140;2023-08-08T05:10:31;10.80;99.90
11961;DHT22;6040;49.358;11.140;2023-08-08T05:12:58;10.80;99.90
11961;DHT22;6040;49.358;11.140;2023-08-08T05:15:25;10.50;99.90
11961;DHT22;6040;49.358;11.140;2023-08-08T05:17:51;11.10;99.90
11961;DHT22;6040;49.358;11.140;2023-08-08T05:20:21;11.50;99.90
11961;DHT22;6040;49.358;11.140;2023-08-08T05:22:48;12.30;99.90
11961;DHT22;6040;49.358;11.140;2023-08-08T05:25:16;13.10;99.90
11961;DHT22;6040;49.358;11.140;2023-08-08T05:27:43;13.60;99.90
11961;DHT22;6040;49.358;11.140;2023-08-08T05:30:11;14.00;99.90
11961;DHT22;6040;49.358;11.140;2023-08-08T05:32:37;14.40;99.90
11961;DHT22;6040;49.358;11.140;2023-08-08T05:35:06;14.80;99.90
11961;DHT22;6040;49.358;11.140;2023-08-08T05:37:33;15.10;99.90
11961;DHT22;6040;49.358;11.140;2023-08-08T05:40:00;15.90;99.90
11961;DHT22;6040;49.358;11.140;2023-08-08T05:42:28;16.00;99.90
11961;DHT22;6040;49.358;11.140;2023-08-08T05:44:57;16.40;99.90
11961;DHT22;6040;49.358;11.140;2023-08-08T05:47:24;16.60;99.90
11961;DHT22;6040;49.358;11.140;2023-08-08T05:49:51;17.20;99.90
11961;DHT22;6040;49.358;11.140;2023-08-08T05:52:18;17.40;99.90
11961;DHT22;6040;49.358;11.140;2023-08-08T05:54:45;17.70;99.90
11961;DHT22;6040;49.358;11.140;2023-08-08T05:57:11;17.90;99.90
11961;DHT22;6040;49.358;11.140;2023-08-08T05:59:39;18.30;99.90
11961;DHT22;6040;49.358;11.140;2023-08-08T06:02:06;18.70;99.90
11961;DHT22;6040;49.358;11.140;2023-08-08T06:04:33;19.00;99.90
11961;DHT22;6040;49.358;11.140;2023-08-08T06:07:00;19.50;99.90
11961;DHT22;6040;49.358;11.140;2023-08-08T06:09:27;19.80;99.90
11961;DHT22;6040;49.358;11.140;2023-08-08T06:11:54;20.10;99.90
11961;DHT22;6040;49.358;11.140;2023-08-08T06:14:21;20.60;99.90
11961;DHT22;6040;49.358;11.140;2023-08-08T06:16:49;19.70;99.90
11961;DHT22;6040;49.358;11.140;2023-08-08T06:19:16;18.50;99.90
11961;DHT22;6040;49.358;11.140;2023-08-08T06:21:43;17.80;99.90
11961;DHT22;6040;49.358;11.140;2023-08-08T06:24:10;17.00;99.90
11961;DHT22;6040;49.358;11.140;2023-08-08T06:26:37;16.60;99.90
11961;DHT22;6040;49.358;11.140;2023-08-08T06:29:04;16.40;99.90
11961;DHT22;6040;49.358;11.140;2023-08-08T06:31:31;16.10;99.90
11961;DHT22;6040;49.358;11.140;2023-08-08T06:33:59;16.00;99.90
11961;DHT22;6040;49.358;11.140;2023-08-08T06:36:26;15.80;99.90
11961;DHT22;6040;49.358;11.140;2023-08-08T06:38:53;16.50;99.90
11961;DHT22;6040;49.358;11.140;2023-08-08T06:41:20;16.00;99.90
11961;DHT22;6040;49.358;11.140;2023-08-08T06:43:47;17.00;99.90
11961;DHT22;6040;49.358;11.140;2023-08-08T06:46:14;18.50;99.90
11961;DHT22;6040;49.358;11.140;2023-08-08T06:48:42;19.30;99.90
11961;DHT22;6040;49.358;11.140;2023-08-08T06:51:11;19.10;99.90
11961;DHT22;6040;49.358;11.140;2023-08-08T06:53:38;18.70;99.90
11961;DHT22;6040;49.358;11.140;2023-08-08T06:56:05;18.40;99.90
11961;DHT22;6040;49.358;11.140;2023-08-08T06:58:31;18.30;99.90
11961;DHT22;6040;49.358;11.140;2023-08-08T07:00:58;18.10;99.90
11961;DHT22;6040;49.358;11.140;2023-08-08T07:03:25;17.80;99.90
11961;DHT22;6040;49.358;11.140;2023-08-08T07:05:52;17.60;99.90
11961;DHT22;6040;49.358;11.140;2023-08-08T07:08:20;17.70;99.90
11961;DHT22;6040;49.358;11.140;2023-08-08T07:10:47;17.90;99.90
11961;DHT22;6040;49.358;11.140;2023-08-08T07:13:14;17.80;99.90
11961;DHT22;6040;49.358;11.140;2023-08-08T07:15:41;17.70;99.90
11961;DHT22;6040;49.358;11.140;2023-08-08T07:18:08;17.50;99.90
11961;DHT22;6040;49.358;11.140;2023-08-08T07:20:35;17.40;99.90
11961;DHT22;6040;49.358;11.140;2023-08-08T07:23:02;17.30;99.90
11961;DHT22;6040;49.358;11.140;2023-08-08T07:25:30;17.40;99.90
11961;DHT22;6040;49.358;11.140;2023-08-08T07:27:56;17.40;99.90
11961;DHT22;6040;49.358;11.140;2023-08-08T07:30:23;17.30;99.90
11961;DHT22;6040;49.358;11.140;2023-08-08T07:32:51;17.20;99.90
11961;DHT22;6040;49.358;11.140;2023-08-08T07:35:18;17.40;99.90
11961;DHT22;6040;49.358;11.140;2023-08-08T07:37:45;17.90;99.90
11961;DHT22;6040;49.358;11.140;2023-08-08T07:40:15;18.90;99.90
11961;DHT22;6040;49.358;11.140;2023-08-08T07:42:44;19.50;99.90
11961;DHT22;6040;49.358;11.140;2023-08-08T07:45:11;20.10;99.90
11961;DHT22;6040;49.358;11.140;2023-08-08T07:47:38;20.40;99.90
11961;DHT22;6040;49.358;11.140;2023-08-08T07:50:06;20.90;99.90
11961;DHT22;6040;49.358;11.140;2023-08-08T07:52:33;21.10;99.90
11961;DHT22;6040;49.358;11.140;2023-08-08T07:55:00;21.40;99.90
11961;DHT22;6040;49.358;11.140;2023-08-08T07:57:27;21.50;99.90
11961;DHT22;6040;49.358;11.140;2023-08-08T07:59:57;21.40;99.90
11961;DHT22;6040;49.358;11.140;2023-08-08T08:02:23;21.60;99.90
11961;DHT22;6040;49.358;11.140;2023-08-08T08:04:50;21.30;99.90
11961;DHT22;6040;49.358;11.140;2023-08-08T08:07:17;21.40;99.90
11961;DHT22;6040;49.358;11.140;2023-08-08T08:09:44;22.20;99.90
11961;DHT22;6040;49.358;11.140;2023-08-08T08:12:11;22.30;99.90
11961;DHT22;6040;49.358;11.140;2023-08-08T08:14:38;22.50;99.90
11961;DHT22;6040;49.358;11.140;2023-08-08T08:17:06;22.00;99.90
11961;DHT22;6040;49.358;11.140;2023-08-08T08:19:34;21.70;99.90
11961;DHT22;6040;49.358;11.140;2023-08-08T08:22:01;21.00;99.90
11961;DHT22;6040;49.358;11.140;2023-08-08T08:24:28;21.00;99.90
11961;DHT22;6040;49.358;11.140;2023-08-08T08:26:55;21.10;99.90
11961;DHT22;6040;49.358;11.140;2023-08-08T08:29:22;21.40;99.90
11961;DHT22;6040;49.358;11.140;2023-08-08T08:31:48;21.70;99.30
11961;DHT22;6040;49.358;11.140;2023-08-08T08:34:17;21.60;99.90
11961;DHT22;6040;49.358;11.140;2023-08-08T08:36:43;21.90;99.50
11961;DHT22;6040;49.358;11.140;2023-08-08T08:39:10;21.60;99.90
11961;DHT22;6040;49.358;11.140;2023-08-08T08:41:37;21.60;99.90
11961;DHT22;6040;49.358;11.140;2023-08-08T08:44:04;21.70;99.90
11961;DHT22;6040;49.358;11.140;2023-08-08T08:46:32;21.70;99.90
11961;DHT22;6040;49.358;11.140;2023-08-08T08:49:02;22.00;99.40
11961;DHT22;6040;49.358;11.140;2023-08-08T08:51:34;21.90;98.40
11961;DHT22;6040;49.358;11.140;2023-08-08T08:54:02;21.30;99.20
11961;DHT22;6040;49.358;11.140;2023-08-08T08:56:29;21.50;99.60
11961;DHT22;6040;49.358;11.140;2023-08-08T08:58:58;21.00;99.80
11961;DHT22;6040;49.358;11.140;2023-08-08T09:01:26;20.80;99.00
11961;DHT22;6040;49.358;11.140;2023-08-08T09:03:53;20.50;99.90
11961;DHT22;6040;49.358;11.140;2023-08-08T09:06:22;20.60;99.50
11961;DHT22;6040;49.358;11.140;2023-08-08T09:08:51;20.70;99.70
11961;DHT22;6040;49.358;11.140;2023-08-08T09:11:18;20.50;99.40
11961;DHT22;6040;49.358;11.140;2023-08-08T09:13:46;20.10;99.50
11961;DHT22;6040;49.358;11.140;2023-08-08T09:16:13;20.10;99.90
11961;DHT22;6040;49.358;11.140;2023-08-08T09:18:40;20.20;99.90
11961;DHT22;6040;49.358;11.140;2023-08-08T09:21:08;20.30;99.90
11961;DHT22;6040;49.358;11.140;2023-08-08T09:23:36;20.70;99.10
11961;DHT22;6040;49.358;11.140;2023-08-08T09:26:05;20.90;98.00
11961;DHT22;6040;49.358;11.140;2023-08-08T09:28:32;20.80;98.00
11961;DHT22;6040;49.358;11.140;2023-08-08T09:30:58;21.00;98.50
11961;DHT22;6040;49.358;11.140;2023-08-08T09:33:28;21.20;97.90
11961;DHT22;6040;49.358;11.140;2023-08-08T09:35:55;21.40;98.00
11961;DHT22;6040;49.358;11.140;2023-08-08T09:38:22;21.40;97.40
11961;DHT22;6040;49.358;11.140;2023-08-08T09:40:50;21.20;96.30
11961;DHT22;6040;49.358;11.140;2023-08-08T09:43:18;21.40;97.60
11961;DHT22;6040;49.358;11.140;2023-08-08T09:45:47;21.60;96.70
11961;DHT22;6040;49.358;11.140;2023-08-08T09:48:16;21.50;96.80
11961;DHT22;6040;49.358;11.140;2023-08-08T09:50:43;21.60;97.10
11961;DHT22;6040;49.358;11.140;2023-08-08T09:53:11;21.90;97.30
11961;DHT22;6040;49.358;11.140;2023-08-08T09:55:39;22.40;96.00
11961;DHT22;6040;49.358;11.140;2023-08-08T09:58:06;22.20;95.10
11961;DHT22;6040;49.358;11.140;2023-08-08T10:00:35;22.30;96.00
11961;DHT22;6040;49.358;11.140;2023-08-08T10:03:03;22.70;96.20
11961;DHT22;6040;49.358;11.140;2023-08-08T10:05:30;23.00;96.70
11961;DHT22;6040;49.358;11.140;2023-08-08T10:07:57;23.50;96.50
11961;DHT22;6040;49.358;11.140;2023-08-08T10:10:24;23.60;96.40
11961;DHT22;6040;49.358;11.140;2023-08-08T10:12:52;23.60;95.20
11961;DHT22;6040;49.358;11.140;2023-08-08T10:15:19;23.70;95.80
11961;DHT22;6040;49.358;11.140;2023-08-08T10:17:56;23.50;95.20
11961;DHT22;6040;49.358;11.140;2023-08-08T10:20:24;23.00;94.90
11961;DHT22;6040;49.358;11.140;2023-08-08T10:22:53;22.30;94.70
11961;DHT22;6040;49.358;11.140;2023-08-08T10:25:23;21.90;95.40
11961;DHT22;6040;49.358;11.140;2023-08-08T10:28:02;21.80;95.60
11961;DHT22;6040;49.358;11.140;2023-08-08T10:30:30;21.80;95.40
11961;DHT22;6040;49.358;11.140;2023-08-08T10:33:15;21.90;96.60
11961;DHT22;6040;49.358;11.140;2023-08-08T10:35:54;22.20;96.40
11961;DHT22;6040;49.358;11.140;2023-08-08T10:38:21;22.30;95.30
11961;DHT22;6040;49.358;11.140;2023-08-08T10:40:55;22.60;95.20
11961;DHT22;6040;49.358;11.140;2023-08-08T10:43:26;22.70;94.50
11961;DHT22;6040;49.358;11.140;2023-08-08T10:45:57;22.80;94.70
11961;DHT22;6040;49.358;11.140;2023-08-08T10:48:26;23.00;95.10
11961;DHT22;6040;49.358;11.140;2023-08-08T10:50:55;22.80;93.10
11961;DHT22;6040;49.358;11.140;2023-08-08T10:53:25;22.80;94.80
11961;DHT22;6040;49.358;11.140;2023-08-08T10:55:57;22.70;93.70
11961;DHT22;6040;49.358;11.140;2023-08-08T10:58:35;22.60;94.10
11961;DHT22;6040;49.358;11.140;2023-08-08T11:01:02;22.50;93.60
11961;DHT22;6040;49.358;11.140;2023-08-08T11:03:34;22.50;94.30
11961;DHT22;6040;49.358;11.140;2023-08-08T11:06:02;22.60;94.30
11961;DHT22;6040;49.358;11.140;2023-08-08T11:08:31;22.50;94.30
11961;DHT22;6040;49.358;11.140;2023-08-08T11:10:59;22.40;93.40
11961;DHT22;6040;49.358;11.140;2023-08-08T11:13:26;22.50;92.90
11961;DHT22;6040;49.358;11.140;2023-08-08T11:15:53;22.50;93.10
11961;DHT22;6040;49.358;11.140;2023-08-08T11:18:20;22.70;93.10
11961;DHT22;6040;49.358;11.140;2023-08-08T11:20:49;22.70;92.20
11961;DHT22;6040;49.358;11.140;2023-08-08T11:23:16;22.70;92.90
11961;DHT22;6040;49.358;11.140;2023-08-08T11:25:45;22.60;92.00
11961;DHT22;6040;49.358;11.140;2023-08-08T11:28:12;22.40;92.10
11961;DHT22;6040;49.358;11.140;2023-08-08T11:30:42;22.30;92.00
11961;DHT22;6040;49.358;11.140;2023-08-08T11:33:09;22.20;92.30
11961;DHT22;6040;49.358;11.140;2023-08-08T11:35:37;22.40;92.90
11961;DHT22;6040;49.358;11.140;2023-08-08T11:38:06;22.60;93.00
11961;DHT22;6040;49.358;11.140;2023-08-08T11:40:33;22.70;92.30
11961;DHT22;6040;49.358;11.140;2023-08-08T11:43:00;22.00;92.10
11961;DHT22;6040;49.358;11.140;2023-08-08T11:45:27;23.00;92.40
11961;DHT22;6040;49.358;11.140;2023-08-08T11:47:55;22.90;91.80
11961;DHT22;6040;49.358;11.140;2023-08-08T11:50:23;22.80;91.30
11961;DHT22;6040;49.358;11.140;2023-08-08T11:52:51;22.80;90.90
11961;DHT22;6040;49.358;11.140;2023-08-08T11:55:20;22.90;92.20
11961;DHT22;6040;49.358;11.140;2023-08-08T11:57:48;22.90;90.40
11961;DHT22;6040;49.358;11.140;2023-08-08T12:00:16;23.20;91.30
11961;DHT22;6040;49.358;11.140;2023-08-08T12:02:43;23.20;90.40
11961;DHT22;6040;49.358;11.140;2023-08-08T12:05:12;23.30;90.30
11961;DHT22;6040;49.358;11.140;2023-08-08T12:07:40;23.40;91.10
11961;DHT22;6040;49.358;11.140;2023-08-08T12:10:14;23.60;90.80
11961;DHT22;6040;49.358;11.140;2023-08-08T12:12:42;23.70;90.60
11961;DHT22;6040;49.358;11.140;2023-08-08T12:15:10;23.70;87.70
11961;DHT22;6040;49.358;11.140;2023-08-08T12:17:37;23.50;90.20
11961;DHT22;6040;49.358;11.140;2023-08-08T12:20:05;23.20;89.20
11961;DHT22;6040;49.358;11.140;2023-08-08T12:22:32;23.30;90.00
11961;DHT22;6040;49.358;11.140;2023-08-08T12:24:59;23.20;90.40
11961;DHT22;6040;49.358;11.140;2023-08-08T12:27:26;23.10;89.30
11961;DHT22;6040;49.358;11.140;2023-08-08T12:29:55;23.20;91.40
11961;DHT22;6040;49.358;11.140;2023-08-08T12:32:24;23.20;89.90
11961;DHT22;6040;49.358;11.140;2023-08-08T12:34:52;23.10;89.10
11961;DHT22;6040;49.358;11.140;2023-08-08T12:37:19;23.00;87.80
11961;DHT22;6040;49.358;11.140;2023-08-08T12:39:45;22.90;86.40
11961;DHT22;6040;49.358;11.140;2023-08-08T12:42:12;23.70;88.80
11961;DHT22;6040;49.358;11.140;2023-08-08T12:44:39;23.20;89.00
11961;DHT22;6040;49.358;11.140;2023-08-08T12:47:07;23.20;88.10
11961;DHT22;6040;49.358;11.140;2023-08-08T12:49:34;23.60;90.50
11961;DHT22;6040;49.358;11.140;2023-08-08T12:52:01;23.00;90.00
11961;DHT22;6040;49.358;11.140;2023-08-08T12:54:28;22.60;88.60
11961;DHT22;6040;49.358;11.140;2023-08-08T12:56:54;22.70;90.60
11961;DHT22;6040;49.358;11.140;2023-08-08T12:59:21;22.60;90.30
11961;DHT22;6040;49.358;11.140;2023-08-08T13:01:48;22.40;90.00
11961;DHT22;6040;49.358;11.140;2023-08-08T13:04:16;22.40;90.10
11961;DHT22;6040;49.358;11.140;2023-08-08T13:06:43;22.50;90.00
11961;DHT22;6040;49.358;11.140;2023-08-08T13:09:10;22.80;90.40
11961;DHT22;6040;49.358;11.140;2023-08-08T13:11:37;22.90;90.90
11961;DHT22;6040;49.358;11.140;2023-08-08T13:14:04;22.60;88.10
11961;DHT22;6040;49.358;11.140;2023-08-08T13:16:32;22.50;88.60
11961;DHT22;6040;49.358;11.140;2023-08-08T13:18:58;22.50;89.10
11961;DHT22;6040;49.358;11.140;2023-08-08T13:21:27;22.60;89.40
11961;DHT22;6040;49.358;11.140;2023-08-08T13:23:54;22.90;88.60
11961;DHT22;6040;49.358;11.140;2023-08-08T13:26:21;23.10;90.20
11961;DHT22;6040;49.358;11.140;2023-08-08T13:28:47;23.10;88.20
11961;DHT22;6040;49.358;11.140;2023-08-08T13:31:15;23.10;88.10
11961;DHT22;6040;49.358;11.140;2023-08-08T13:33:42;22.90;86.50
11961;DHT22;6040;49.358;11.140;2023-08-08T13:36:09;22.70;86.40
11961;DHT22;6040;49.358;11.140;2023-08-08T13:38:37;22.60;88.90
11961;DHT22;6040;49.358;11.140;2023-08-08T13:41:04;22.70;89.50
11961;DHT22;6040;49.358;11.140;2023-08-08T13:43:31;22.60;88.60
11961;DHT22;6040;49.358;11.140;2023-08-08T13:45:58;22.50;88.70
11961;DHT22;6040;49.358;11.140;2023-08-08T13:48:25;22.20;87.40
11961;DHT22;6040;49.358;11.140;2023-08-08T13:50:52;22.20;89.10
11961;DHT22;6040;49.358;11.140;2023-08-08T13:53:19;22.20;87.90
11961;DHT22;6040;49.358;11.140;2023-08-08T13:55:47;22.10;87.40
11961;DHT22;6040;49.358;11.140;2023-08-08T13:58:14;22.20;88.10
11961;DHT22;6040;49.358;11.140;2023-08-08T14:00:41;21.90;87.50
11961;DHT22;6040;49.358;11.140;2023-08-08T14:03:08;21.90;88.30
11961;DHT22;6040;49.358;11.140;2023-08-08T14:05:35;22.00;89.80
11961;DHT22;6040;49.358;11.140;2023-08-08T14:08:03;22.10;88.30
11961;DHT22;6040;49.358;11.140;2023-08-08T14:10:30;21.90;87.00
11961;DHT22;6040;49.358;11.140;2023-08-08T14:12:58;22.00;87.70
11961;DHT22;6040;49.358;11.140;2023-08-08T14:15:25;21.90;87.70
11961;DHT22;6040;49.358;11.140;2023-08-08T14:17:52;21.90;85.30
11961;DHT22;6040;49.358;11.140;2023-08-08T14:20:19;21.80;85.10
11961;DHT22;6040;49.358;11.140;2023-08-08T14:22:46;21.70;87.30
11961;DHT22;6040;49.358;11.140;2023-08-08T14:25:13;21.80;88.80
11961;DHT22;6040;49.358;11.140;2023-08-08T14:27:40;22.00;87.60
11961;DHT22;6040;49.358;11.140;2023-08-08T14:30:09;22.10;87.70
11961;DHT22;6040;49.358;11.140;2023-08-08T14:32:36;22.00;87.40
11961;DHT22;6040;49.358;11.140;2023-08-08T14:35:04;21.90;88.20
11961;DHT22;6040;49.358;11.140;2023-08-08T14:37:31;21.90;88.70
11961;DHT22;6040;49.358;11.140;2023-08-08T14:39:58;21.70;86.80
11961;DHT22;6040;49.358;11.140;2023-08-08T14:42:24;21.60;88.70
11961;DHT22;6040;49.358;11.140;2023-08-08T14:44:51;21.40;87.60
11961;DHT22;6040;49.358;11.140;2023-08-08T14:47:19;21.40;87.60
11961;DHT22;6040;49.358;11.140;2023-08-08T14:49:46;21.30;86.70
11961;DHT22;6040;49.358;11.140;2023-08-08T14:52:15;21.40;86.00
11961;DHT22;6040;49.358;11.140;2023-08-08T14:54:42;21.50;83.70
11961;DHT22;6040;49.358;11.140;2023-08-08T14:57:09;21.50;83.30
11961;DHT22;6040;49.358;11.140;2023-08-08T14:59:36;21.70;85.00
11961;DHT22;6040;49.358;11.140;2023-08-08T15:02:03;21.80;84.80
11961;DHT22;6040;49.358;11.140;2023-08-08T15:04:32;22.00;85.90
11961;DHT22;6040;49.358;11.140;2023-08-08T15:06:59;21.80;85.70
11961;DHT22;6040;49.358;11.140;2023-08-08T15:09:25;21.60;86.00
11961;DHT22;6040;49.358;11.140;2023-08-08T15:11:52;21.60;87.00
11961;DHT22;6040;49.358;11.140;2023-08-08T15:14:19;21.50;88.60
11961;DHT22;6040;49.358;11.140;2023-08-08T15:16:49;21.50;87.60
11961;DHT22;6040;49.358;11.140;2023-08-08T15:19:15;21.50;87.70
11961;DHT22;6040;49.358;11.140;2023-08-08T15:21:44;21.50;87.10
11961;DHT22;6040;49.358;11.140;2023-08-08T15:24:11;21.40;86.40
11961;DHT22;6040;49.358;11.140;2023-08-08T15:26:38;21.20;86.30
11961;DHT22;6040;49.358;11.140;2023-08-08T15:29:05;21.20;87.00
11961;DHT22;6040;49.358;11.140;2023-08-08T15:31:32;21.20;89.10